Time;durP1;ratioP1;P1;durP2;ratioP2;P2;SDS_P1;SDS_P2;PMS_P1;PMS_P2;Temp;Humidity;BMP_temperature;BMP_pressure;BME280_temperature;BME280_humidity;BME280_pressure;Samples;Min_cycle;Max_cycle;Signal;HPM_P1;HPM_P2
2022/08/25 00:00:16;;;;;;;;;6.00;6.00;;;;;22.24;44.13;100027.53;5093328;28;8912;-63
2022/08/25 00:02:44;;;;;;;;;9.00;8.00;;;;;22.21;43.75;100030.63;5095166;28;9010;-62
2022/08/25 00:05:22;;;;;;;;;9.60;9.40;;;;;22.17;44.11;100023.91;5095066;28;8819;-63
2022/08/25 00:07:50;;;;;;;;;5.20;5.20;;;;;22.11;44.25;100022.81;5095060;28;9533;-63
2022/08/25 00:10:19;;;;;;;;;9.20;9.00;;;;;22.08;44.46;100019.66;5094804;28;8979;-63
2022/08/25 00:12:46;;;;;;;;;6.40;6.00;;;;;22.05;44.53;100023.59;5095539;28;8804;-63
2022/08/25 00:15:14;;;;;;;;;5.60;5.20;;;;;22.05;44.42;100025.44;5094733;28;8840;-63
2022/08/25 00:17:42;;;;;;;;;5.00;4.80;;;;;22.02;44.11;100028.56;5095259;28;9680;-63
2022/08/25 00:20:10;;;;;;;;;8.00;8.00;;;;;21.98;44.36;100025.38;5095176;28;9517;-64
2022/08/25 00:22:38;;;;;;;;;8.80;8.40;;;;;21.96;44.21;100032.03;5094702;28;8824;-62
2022/08/25 00:25:05;;;;;;;;;7.20;7.20;;;;;21.93;44.37;100027.81;5094834;28;8958;-63
2022/08/25 00:27:33;;;;;;;;;4.00;2.00;;;;;21.91;44.61;100023.63;5095093;28;8840;-62
2022/08/25 00:30:01;;;;;;;;;8.00;8.00;;;;;21.90;44.38;100032.78;5091833;28;9148;-62
2022/08/25 00:32:29;;;;;;;;;9.00;9.00;;;;;21.89;44.80;100023.84;5094256;28;8910;-63
2022/08/25 00:34:57;;;;;;;;;8.60;6.80;;;;;21.88;44.67;100024.03;5094743;28;8812;-63
2022/08/25 00:37:24;;;;;;;;;5.80;5.80;;;;;21.87;44.38;100030.47;5094740;28;8828;-63
2022/08/25 00:39:55;;;;;;;;;8.20;8.00;;;;;21.85;44.28;100024.41;5095125;28;8979;-62
2022/08/25 00:42:23;;;;;;;;;10.00;8.20;;;;;21.84;44.47;100022.72;5094967;28;8824;-63
2022/08/25 00:44:51;;;;;;;;;6.00;6.00;;;;;21.84;44.68;100028.13;5095569;28;8917;-63
2022/08/25 00:47:19;;;;;;;;;8.40;8.40;;;;;21.84;44.46;100030.84;5095084;28;8836;-62
2022/08/25 00:49:47;;;;;;;;;6.00;6.00;;;;;21.83;44.57;100027.31;5094542;28;8924;-62
2022/08/25 00:52:15;;;;;;;;;10.40;8.00;;;;;21.79;44.92;100028.72;5093622;28;8851;-62
2022/08/25 00:54:42;;;;;;;;;6.00;6.00;;;;;21.76;44.50;100036.38;5093150;28;8846;-64
2022/08/25 00:57:11;;;;;;;;;4.80;4.80;;;;;21.73;45.09;100037.63;5094701;28;8848;-62
2022/08/25 00:59:39;;;;;;;;;8.00;6.40;;;;;21.68;45.24;100040.06;5094794;28;8842;-62
2022/08/25 01:02:07;;;;;;;;;6.20;6.20;;;;;21.63;44.93;100041.66;5095028;28;8944;-63
2022/08/25 01:04:40;;;;;;;;;4.00;4.00;;;;;21.59;45.06;100035.75;5095179;28;9529;-63
2022/08/25 01:07:15;;;;;;;;;8.00;8.00;;;;;21.55;45.00;100029.03;5098574;28;8850;-62
2022/08/25 01:09:44;;;;;;;;;8.60;6.20;;;;;21.53;45.20;100031.09;5098847;28;8828;-64
2022/08/25 01:12:12;;;;;;;;;8.00;8.00;;;;;21.51;44.98;100032.31;5098509;28;8846;-62
2022/08/25 01:14:39;;;;;;;;;8.00;7.40;;;;;21.47;45.51;100022.84;5098670;28;8816;-63
2022/08/25 01:17:08;;;;;;;;;2.40;2.40;;;;;21.43;45.44;100011.59;5098384;28;8831;-66
2022/08/25 01:19:36;;;;;;;;;8.20;8.20;;;;;21.42;45.09;100033.44;5098073;28;9624;-62
2022/08/25 01:22:04;;;;;;;;;5.00;4.00;;;;;21.39;45.29;100025.66;5098620;28;9618;-62
2022/08/25 01:24:32;;;;;;;;;5.20;5.00;;;;;21.35;45.35;100027.09;5098579;28;8868;-63
2022/08/25 01:27:00;;;;;;;;;6.60;6.60;;;;;21.33;45.35;100034.59;5098504;28;8828;-63
2022/08/25 01:29:28;;;;;;;;;6.20;6.20;;;;;21.28;45.86;100034.28;5098073;28;8905;-62
2022/08/25 01:31:56;;;;;;;;;9.40;9.00;;;;;21.26;45.38;100034.47;5098115;28;8925;-64
2022/08/25 01:34:24;;;;;;;;;8.20;7.60;;;;;21.23;45.83;100034.00;5098121;28;8983;-63
2022/08/25 01:36:52;;;;;;;;;8.00;8.00;;;;;21.21;45.27;100033.34;5098288;28;8922;-62
2022/08/25 01:39:20;;;;;;;;;5.20;5.20;;;;;21.17;45.70;100034.75;5097881;28;8981;-64
2022/08/25 01:41:49;;;;;;;;;7.60;7.60;;;;;21.13;45.84;100034.31;5097726;28;8854;-62
2022/08/25 01:44:18;;;;;;;;;9.80;8.40;;;;;21.09;45.41;100035.69;5097775;28;8848;-62
2022/08/25 01:46:45;;;;;;;;;7.20;7.20;;;;;21.04;46.09;100031.88;5098168;28;8844;-62
2022/08/25 01:49:13;;;;;;;;;7.20;7.00;;;;;21.02;45.81;100031.22;5098078;28;8881;-65
2022/08/25 01:51:41;;;;;;;;;10.20;9.20;;;;;20.99;46.04;100026.16;5098021;28;8831;-63
2022/08/25 01:54:09;;;;;;;;;9.60;9.20;;;;;20.97;46.20;100033.66;5097660;28;8828;-63
2022/08/25 01:56:36;;;;;;;;;10.40;8.60;;;;;20.93;45.93;100027.75;5097872;28;8840;-63
2022/08/25 01:59:04;;;;;;;;;9.00;9.00;;;;;20.93;45.96;100032.31;5098049;28;8847;-63
2022/08/25 02:01:32;;;;;;;;;8.00;8.00;;;;;20.90;46.45;100032.69;5097696;28;8979;-63
2022/08/25 02:04:00;;;;;;;;;5.60;5.60;;;;;20.88;45.99;100036.63;5097143;28;9525;-62
2022/08/25 02:06:28;;;;;;;;;5.20;4.00;;;;;20.86;46.06;100025.94;5097869;28;8837;-62
2022/08/25 02:08:57;;;;;;;;;9.00;9.00;;;;;20.82;46.15;100030.88;5097596;28;8832;-63
2022/08/25 02:11:24;;;;;;;;;7.60;7.60;;;;;20.79;46.32;100024.97;5097729;28;8882;-64
2022/08/25 02:13:52;;;;;;;;;6.20;5.60;;;;;20.78;46.55;100023.31;5097056;28;8909;-63
2022/08/25 02:16:20;;;;;;;;;7.40;7.40;;;;;20.75;46.56;100024.50;5097538;28;8924;-62
2022/08/25 02:18:48;;;;;;;;;9.20;9.20;;;;;20.72;46.62;100023.22;5097462;28;9533;-62
2022/08/25 02:21:16;;;;;;;;;8.60;8.60;;;;;20.70;46.97;100025.28;5097550;28;8862;-63
2022/08/25 02:23:43;;;;;;;;;7.80;7.00;;;;;20.67;46.58;100026.47;5096820;28;8859;-62
2022/08/25 02:26:11;;;;;;;;;9.00;9.00;;;;;20.65;46.48;100017.72;5097158;28;8840;-63
2022/08/25 02:28:39;;;;;;;;;8.00;7.00;;;;;20.63;46.52;100019.75;5097686;28;8816;-69
2022/08/25 02:31:06;;;;;;;;;9.40;8.40;;;;;20.62;46.31;100022.66;5097234;28;9349;-64
2022/08/25 02:33:34;;;;;;;;;11.00;10.00;;;;;20.60;46.89;100017.41;5097140;28;8872;-63
2022/08/25 02:36:02;;;;;;;;;11.20;10.20;;;;;20.58;46.77;100027.59;5096947;28;8886;-65
2022/08/25 02:38:30;;;;;;;;;9.00;8.40;;;;;20.56;46.86;100018.78;5097187;28;8970;-63
2022/08/25 02:40:58;;;;;;;;;8.00;8.00;;;;;20.53;46.72;100019.16;5097166;28;8839;-62
2022/08/25 02:43:25;;;;;;;;;8.00;7.00;;;;;20.50;47.15;100013.28;5096445;28;8885;-63
2022/08/25 02:45:54;;;;;;;;;8.20;8.00;;;;;20.47;47.12;100011.78;5097065;28;8859;-64
2022/08/25 02:48:22;;;;;;;;;9.20;8.00;;;;;20.44;47.33;100008.59;5097104;28;8865;-62
2022/08/25 02:50:50;;;;;;;;;7.80;7.40;;;;;20.40;47.07;100010.81;5097054;28;8827;-63
2022/08/25 02:53:18;;;;;;;;;9.00;9.00;;;;;20.38;46.62;100015.59;5096383;28;8832;-62
2022/08/25 02:55:46;;;;;;;;;7.80;7.80;;;;;20.35;47.14;100012.41;5096001;28;8835;-62
2022/08/25 02:58:14;;;;;;;;;10.00;10.00;;;;;20.32;47.26;100012.78;5096613;28;8974;-63
2022/08/25 03:00:42;;;;;;;;;9.80;9.80;;;;;20.29;46.98;100013.13;5096280;28;8820;-63
2022/08/25 03:03:10;;;;;;;;;7.00;7.00;;;;;20.26;46.86;100010.78;5096506;28;8844;-62
2022/08/25 03:05:37;;;;;;;;;7.40;7.00;;;;;20.21;47.44;100008.63;5096458;28;8954;-62
2022/08/25 03:08:05;;;;;;;;;7.80;7.40;;;;;20.16;47.84;100011.03;5096304;28;9360;-63
2022/08/25 03:10:33;;;;;;;;;9.80;8.20;;;;;20.13;47.67;100002.44;5096259;28;8937;-64
2022/08/25 03:13:01;;;;;;;;;7.60;7.20;;;;;20.07;47.83;100004.00;5095923;28;8846;-62
2022/08/25 03:15:29;;;;;;;;;10.80;10.00;;;;;20.04;47.44;100006.19;5095972;28;8824;-63
2022/08/25 03:17:57;;;;;;;;;9.00;8.00;;;;;19.98;47.95;100002.38;5096353;28;8905;-63
2022/08/25 03:20:26;;;;;;;;;10.20;10.20;;;;;19.94;47.72;100006.44;5095938;28;8843;-62
2022/08/25 03:22:54;;;;;;;;;7.60;7.20;;;;;19.92;47.91;100003.06;5096641;28;8856;-62
2022/08/25 03:28:12;;;;;;;;;13.40;12.60;;;;;19.88;47.88;99999.03;5038823;28;8852;-62
2022/08/25 03:30:41;;;;;;;;;10.40;10.20;;;;;19.86;48.48;99992.97;5096065;28;8937;-61
2022/08/25 03:33:08;;;;;;;;;13.20;10.80;;;;;19.85;48.04;99991.31;5094284;28;8860;-62
2022/08/25 03:35:36;;;;;;;;;13.20;12.40;;;;;19.84;47.80;99989.63;5095828;28;8827;-62
2022/08/25 03:38:04;;;;;;;;;10.00;8.80;;;;;19.83;48.33;99979.84;5095658;28;8948;-61
2022/08/25 03:40:32;;;;;;;;;10.80;10.80;;;;;19.81;47.83;99976.44;5095967;28;8919;-63
2022/08/25 03:43:00;;;;;;;;;10.00;8.00;;;;;19.79;47.81;99978.50;5095367;28;8982;-62
2022/08/25 03:45:28;;;;;;;;;10.00;10.00;;;;;19.77;47.99;99975.13;5095659;28;8852;-62
2022/08/25 03:47:55;;;;;;;;;10.60;10.60;;;;;19.76;48.14;99970.75;5095649;28;8832;-62
2022/08/25 03:50:23;;;;;;;;;10.80;10.80;;;;;19.75;47.93;99979.91;5095079;28;8974;-63
2022/08/25 03:52:52;;;;;;;;;10.40;10.40;;;;;19.73;48.57;99975.69;5095290;28;8824;-63
2022/08/25 03:55:20;;;;;;;;;14.00;11.00;;;;;19.72;48.08;99979.41;5094407;28;8816;-62
2022/08/25 03:57:47;;;;;;;;;10.20;8.80;;;;;19.70;48.59;99982.28;5094615;28;8862;-62
2022/08/25 04:00:16;;;;;;;;;8.40;8.40;;;;;19.69;48.25;99979.75;5093942;28;8836;-61
2022/08/25 04:02:44;;;;;;;;;10.40;10.40;;;;;19.68;48.56;99984.34;5093847;28;9514;-61
2022/08/25 04:05:12;;;;;;;;;10.00;9.60;;;;;19.66;48.28;99978.25;5093590;28;8990;-61
2022/08/25 04:07:42;;;;;;;;;8.20;8.20;;;;;19.64;48.81;99983.00;5093515;28;9543;-61
2022/08/25 04:10:10;;;;;;;;;8.40;8.00;;;;;19.63;48.52;99975.06;5093685;28;8850;-63
2022/08/25 04:12:37;;;;;;;;;13.00;11.00;;;;;19.63;48.27;99975.06;5093536;28;8843;-61
2022/08/25 04:15:05;;;;;;;;;10.60;10.60;;;;;19.61;48.41;99971.69;5095450;28;8826;-62
2022/08/25 04:17:33;;;;;;;;;7.80;7.80;;;;;19.59;48.47;99974.59;5094784;28;8848;-63
2022/08/25 04:20:00;;;;;;;;;10.80;10.40;;;;;19.57;48.95;99975.78;5095138;28;8836;-62
2022/08/25 04:22:29;;;;;;;;;13.00;11.00;;;;;19.52;48.98;99978.19;5095144;28;8926;-61
2022/08/25 04:24:59;;;;;;;;;10.40;8.20;;;;;19.45;49.11;99974.50;5094627;28;8839;-61
2022/08/25 04:27:27;;;;;;;;;12.80;10.00;;;;;19.38;48.85;99982.47;5095168;28;8880;-62
2022/08/25 04:29:55;;;;;;;;;9.60;8.40;;;;;19.35;49.40;99988.22;5095018;28;8862;-64
2022/08/25 04:32:23;;;;;;;;;10.00;8.80;;;;;19.33;48.88;99975.91;5094442;28;8964;-62
2022/08/25 04:34:51;;;;;;;;;8.40;7.80;;;;;19.29;49.02;99975.44;5094688;28;8932;-60
2022/08/25 04:37:18;;;;;;;;;10.40;9.80;;;;;19.28;49.45;99965.63;5094654;28;8843;-60
2022/08/25 04:39:46;;;;;;;;;8.00;7.80;;;;;19.31;49.40;99967.13;5095627;28;8844;-61
2022/08/25 04:42:14;;;;;;;;;10.60;9.40;;;;;19.36;49.50;99957.47;5099376;28;8848;-61
2022/08/25 04:44:42;;;;;;;;;9.60;9.60;;;;;19.45;49.48;99961.84;5099213;28;8851;-62
2022/08/25 04:47:11;;;;;;;;;14.40;13.40;;;;;19.53;49.23;99971.75;5098974;28;8958;-61
2022/08/25 04:49:38;;;;;;;;;10.00;8.00;;;;;19.58;48.79;99962.09;5098837;28;8852;-61
2022/08/25 04:52:06;;;;;;;;;11.40;10.80;;;;;19.64;49.25;99963.25;5098618;28;8969;-62
2022/08/25 04:54:41;;;;;;;;;12.40;11.00;;;;;19.68;48.77;99960.00;5098732;28;8816;-61
2022/08/25 04:57:09;;;;;;;;;11.00;10.80;;;;;19.74;49.21;99956.59;5098320;28;8869;-62
2022/08/25 04:59:36;;;;;;;;;14.00;13.00;;;;;19.80;48.88;99957.72;5098454;28;8844;-61
2022/08/25 05:02:05;;;;;;;;;14.60;11.00;;;;;19.80;48.67;99958.56;5097773;28;8856;-63
2022/08/25 05:04:33;;;;;;;;;13.00;11.40;;;;;19.80;49.31;99961.25;5097806;28;8890;-62
2022/08/25 05:07:01;;;;;;;;;10.00;9.60;;;;;19.82;48.70;99966.50;5097971;28;8824;-60
2022/08/25 05:09:29;;;;;;;;;13.40;13.00;;;;;19.83;48.99;99969.03;5097352;28;8832;-60
2022/08/25 05:11:59;;;;;;;;;11.80;11.60;;;;;19.84;48.79;99972.53;5098287;28;8878;-63
2022/08/25 05:14:26;;;;;;;;;15.40;12.40;;;;;19.87;48.54;99970.31;5097756;28;8970;-63
2022/08/25 05:16:56;;;;;;;;;12.80;11.20;;;;;19.90;48.85;99969.13;5097056;28;8840;-62
2022/08/25 05:19:24;;;;;;;;;14.60;13.60;;;;;19.94;48.88;99974.00;5097106;28;8863;-62
2022/08/25 05:21:52;;;;;;;;;10.80;10.60;;;;;19.98;48.91;99966.38;5097274;28;8843;-61
2022/08/25 05:24:20;;;;;;;;;8.00;8.00;;;;;20.03;49.03;99974.78;5097474;28;8917;-61
2022/08/25 05:26:48;;;;;;;;;10.40;10.00;;;;;20.09;48.46;99974.91;5095759;28;8950;-61
2022/08/25 05:29:16;;;;;;;;;15.20;12.40;;;;;20.14;48.92;99974.38;5097259;28;8958;-61
2022/08/25 05:31:44;;;;;;;;;11.00;11.00;;;;;20.18;49.02;99981.13;5097770;28;9023;-61
2022/08/25 05:34:17;;;;;;;;;9.60;9.20;;;;;20.20;48.48;99966.38;5095477;28;8864;-61
2022/08/25 05:36:45;;;;;;;;;11.00;10.20;;;;;20.27;48.11;99964.63;5094558;28;8840;-61
2022/08/25 05:39:13;;;;;;;;;15.80;15.20;;;;;20.31;48.36;99962.41;5095543;28;8844;-63
2022/08/25 05:41:41;;;;;;;;;8.80;7.60;;;;;20.39;48.56;99960.44;5094665;28;8859;-61
2022/08/25 05:44:08;;;;;;;;;12.00;12.00;;;;;20.49;48.13;99954.78;5093159;28;8848;-62
2022/08/25 05:46:36;;;;;;;;;12.80;11.00;;;;;20.58;47.82;99956.38;5093697;28;8836;-61
2022/08/25 05:49:04;;;;;;;;;10.80;10.20;;;;;20.67;47.91;99950.69;5092600;28;9672;-61
2022/08/25 05:51:32;;;;;;;;;14.00;14.00;;;;;20.77;47.90;99956.66;5092117;28;9631;-63
2022/08/25 05:54:00;;;;;;;;;10.40;7.40;;;;;20.92;47.34;99952.97;5091555;28;8848;-62
2022/08/25 05:56:28;;;;;;;;;14.00;11.00;;;;;21.06;47.56;99959.41;5093114;28;8819;-61
2022/08/25 05:58:56;;;;;;;;;13.20;11.20;;;;;21.20;47.43;99953.94;5093048;28;8832;-61
2022/08/25 06:04:11;;;;;;;;;12.40;11.20;;;;;21.49;46.74;99947.63;5092136;28;9212;-61
2022/08/25 06:06:39;;;;;;;;;8.60;8.40;;;;;21.62;46.42;99947.75;5092213;28;9734;-61
2022/08/25 06:09:07;;;;;;;;;12.80;11.80;;;;;21.76;46.50;99944.19;5092268;28;8836;-63
2022/08/25 06:11:35;;;;;;;;;11.00;11.00;;;;;21.88;46.44;99938.06;5093468;28;8836;-62
2022/08/25 06:14:03;;;;;;;;;10.20;9.80;;;;;22.00;46.06;99935.69;5092106;28;9660;-62
2022/08/25 06:16:31;;;;;;;;;15.40;14.20;;;;;22.13;45.88;99939.34;5092392;28;9289;-61
2022/08/25 06:18:59;;;;;;;;;13.00;12.80;;;;;22.28;45.81;99939.25;5093001;28;9620;-62
2022/08/25 06:21:27;;;;;;;;;11.60;11.60;;;;;22.43;46.02;99926.47;5092646;28;8954;-63
2022/08/25 06:23:55;;;;;;;;;9.00;8.00;;;;;22.60;45.73;99930.53;5093660;28;8843;-61
2022/08/25 06:26:23;;;;;;;;;14.00;12.80;;;;;22.77;45.24;99934.63;5090976;28;8867;-62
2022/08/25 06:28:51;;;;;;;;;8.80;8.60;;;;;22.95;45.07;99932.22;5091787;28;8840;-62
2022/08/25 06:31:19;;;;;;;;;10.00;10.00;;;;;23.12;45.12;99936.25;5092477;28;8850;-61
2022/08/25 06:33:47;;;;;;;;;10.20;10.20;;;;;23.25;45.00;99939.94;5049653;28;1226409;-61
2022/08/25 06:36:14;;;;;;;;;12.60;11.60;;;;;23.42;44.85;99934.94;5093381;28;8844;-61
2022/08/25 06:38:42;;;;;;;;;8.40;8.40;;;;;23.60;44.73;99929.78;5094022;28;8851;-62
2022/08/25 06:41:11;;;;;;;;;9.00;8.60;;;;;23.76;44.55;99940.28;5093405;28;8842;-62
2022/08/25 06:43:39;;;;;;;;;9.00;9.00;;;;;23.93;44.22;99941.59;5091079;28;8836;-62
2022/08/25 06:46:14;;;;;;;;;8.80;7.60;;;;;24.09;43.79;99933.88;5089356;28;9525;-63
2022/08/25 06:48:42;;;;;;;;;12.60;11.20;;;;;24.23;44.03;99942.88;5089126;28;8844;-62
2022/08/25 06:51:10;;;;;;;;;13.40;12.20;;;;;24.38;43.44;99943.50;5089674;28;8970;-62
2022/08/25 06:53:40;;;;;;;;;12.80;11.80;;;;;24.50;43.86;99936.38;5089360;28;8847;-62
2022/08/25 06:56:08;;;;;;;;;11.80;11.00;;;;;24.60;43.57;99936.81;5089840;28;8852;-62
2022/08/25 06:58:36;;;;;;;;;11.60;11.60;;;;;24.70;43.44;99940.78;5092269;28;8840;-61
2022/08/25 07:01:03;;;;;;;;;12.40;12.40;;;;;24.81;43.97;99944.75;5092885;28;8839;-61
2022/08/25 07:03:32;;;;;;;;;7.00;7.00;;;;;24.92;43.32;99944.09;5093272;28;8859;-61
2022/08/25 07:06:00;;;;;;;;;15.00;13.20;;;;;25.04;42.99;99934.19;5094395;28;8997;-63
2022/08/25 07:08:27;;;;;;;;;11.60;11.20;;;;;25.16;43.10;99944.22;5093779;28;8843;-63
2022/08/25 07:10:55;;;;;;;;;12.60;12.60;;;;;25.29;43.35;99943.34;5093806;28;8954;-62
2022/08/25 07:13:25;;;;;;;;;11.00;11.00;;;;;25.39;43.01;99946.47;5095140;28;8954;-64
2022/08/25 07:15:53;;;;;;;;;10.00;9.80;;;;;25.50;42.99;99946.63;5094116;28;8954;-62
2022/08/25 07:18:21;;;;;;;;;11.00;11.00;;;;;25.63;42.92;99945.72;5093407;28;8844;-63
2022/08/25 07:20:50;;;;;;;;;11.20;10.80;;;;;25.73;42.74;99942.28;5094645;28;8848;-61
2022/08/25 07:23:18;;;;;;;;;6.00;6.00;;;;;25.81;42.69;99944.75;5093604;28;8847;-62
2022/08/25 07:25:46;;;;;;;;;10.80;10.20;;;;;25.91;42.48;99950.63;5094879;28;8850;-62
2022/08/25 07:28:14;;;;;;;;;12.80;12.80;;;;;25.98;42.79;99956.03;5094474;28;8867;-62
2022/08/25 07:30:42;;;;;;;;;15.00;13.00;;;;;26.10;42.52;99943.34;5093238;28;8835;-61
2022/08/25 07:33:10;;;;;;;;;7.80;7.40;;;;;26.22;42.44;99941.56;5093929;28;8867;-61
2022/08/25 07:35:39;;;;;;;;;11.60;10.40;;;;;26.32;42.62;99953.66;5093977;28;8893;-62
2022/08/25 07:38:10;;;;;;;;;15.00;13.00;;;;;26.42;42.29;99948.53;5091569;28;9170;-61
2022/08/25 07:40:44;;;;;;;;;12.40;11.20;;;;;26.52;42.03;99948.91;5092686;28;8905;-62
2022/08/25 07:43:19;;;;;;;;;11.00;11.00;;;;;26.63;41.88;99945.44;5093045;28;8843;-62
2022/08/25 07:45:47;;;;;;;;;11.00;11.00;;;;;26.71;41.88;99934.19;5093888;28;8844;-61
2022/08/25 07:48:18;;;;;;;;;7.60;7.20;;;;;26.84;42.06;99938.69;5093509;28;8824;-61
2022/08/25 07:50:46;;;;;;;;;10.60;8.40;;;;;26.98;41.87;99932.88;5092633;28;8978;-61
2022/08/25 07:53:14;;;;;;;;;13.80;13.00;;;;;27.09;41.49;99937.56;5091833;28;8889;-61
2022/08/25 07:55:41;;;;;;;;;12.20;10.80;;;;;27.20;41.28;99936.84;5093320;28;8994;-62
2022/08/25 07:58:14;;;;;;;;;7.80;7.20;;;;;27.34;41.79;99938.38;5093205;28;8828;-61
2022/08/25 08:00:42;;;;;;;;;8.60;8.60;;;;;27.49;40.95;99929.75;5092627;28;8836;-61
2022/08/25 08:03:09;;;;;;;;;4.40;4.00;;;;;27.63;40.95;99932.06;5091978;28;8971;-62
2022/08/25 08:05:58;;;;;;;;;10.80;8.00;;;;;27.82;40.73;99919.19;5090881;28;9498;-62
2022/08/25 08:08:26;;;;;;;;;8.00;8.00;;;;;27.99;40.62;99917.47;5091774;28;8848;-61
2022/08/25 08:10:54;;;;;;;;;8.00;7.00;;;;;28.14;40.40;99915.13;5091325;28;8974;-62
2022/08/25 08:13:31;;;;;;;;;8.20;7.20;;;;;28.29;40.47;99910.03;5090445;28;8856;-62
2022/08/25 08:16:04;;;;;;;;;11.00;10.00;;;;;28.42;40.10;99910.66;5091969;28;9497;-61
2022/08/25 08:18:32;;;;;;;;;9.00;8.00;;;;;28.53;40.44;99911.72;5090522;28;8913;-62
2022/08/25 08:21:00;;;;;;;;;10.80;10.00;;;;;28.66;40.22;99914.25;5092161;28;8831;-63
2022/08/25 08:23:28;;;;;;;;;11.60;9.40;;;;;28.76;40.19;99920.75;5091475;28;9016;-62
2022/08/25 08:25:56;;;;;;;;;10.40;9.80;;;;;28.86;40.06;99918.28;5091836;28;9544;-62
2022/08/25 08:28:26;;;;;;;;;9.00;8.40;;;;;28.96;40.09;99924.00;5090124;28;9509;-64
2022/08/25 08:30:54;;;;;;;;;8.60;8.60;;;;;29.05;39.52;99919.81;5090602;28;8812;-62
2022/08/25 08:33:23;;;;;;;;;9.60;9.60;;;;;29.16;39.91;99920.88;5090800;28;8872;-62
2022/08/25 08:35:51;;;;;;;;;10.00;9.60;;;;;29.24;39.77;99921.34;5091129;28;8932;-62
2022/08/25 08:38:19;;;;;;;;;5.20;4.40;;;;;29.36;39.66;99916.63;5090591;28;9559;-63
2022/08/25 08:42:15;;;;;;;;;10.00;9.00;;;;;29.46;39.32;99916.00;5089574;28;8859;-63
2022/08/25 08:43:41;;;;;;;;;10.80;10.60;;;;;29.52;39.55;99910.41;5090824;28;8824;-62
2022/08/25 08:46:09;;;;;;;;;12.80;11.40;;;;;29.60;39.34;99906.44;5089299;28;8955;-62
2022/08/25 08:48:37;;;;;;;;;9.40;9.00;;;;;29.69;38.99;99900.31;5091393;28;8924;-62
2022/08/25 08:51:05;;;;;;;;;10.60;10.60;;;;;29.79;38.82;99897.72;5091595;28;8986;-62
2022/08/25 08:53:36;;;;;;;;;10.00;9.80;;;;;29.90;39.30;99896.00;5091490;28;8840;-62
2022/08/25 08:56:04;;;;;;;;;12.40;10.80;;;;;29.97;38.85;99894.78;5091616;28;8979;-63
2022/08/25 08:58:32;;;;;;;;;11.40;11.00;;;;;30.04;38.92;99884.44;5090400;28;8847;-62
2022/08/25 09:01:01;;;;;;;;;10.00;10.00;;;;;30.12;39.32;99877.75;5091376;28;8848;-62
2022/08/25 09:03:29;;;;;;;;;10.20;9.20;;;;;30.20;38.88;99883.66;5091787;28;9618;-61
2022/08/25 09:05:57;;;;;;;;;11.00;9.20;;;;;30.30;38.36;99877.47;5091213;28;8835;-61
2022/08/25 09:08:26;;;;;;;;;9.60;9.40;;;;;30.41;38.49;99873.81;5091079;28;8867;-62
2022/08/25 09:10:54;;;;;;;;;8.80;8.80;;;;;30.52;38.48;99875.63;5090461;28;8970;-62
2022/08/25 09:13:22;;;;;;;;;9.00;7.20;;;;;30.59;38.34;99869.69;5090123;28;8971;-61
2022/08/25 09:18:58;;;;;;;;;13.60;12.60;;;;;30.73;37.97;99872.97;5092860;28;8851;-63
2022/08/25 09:21:25;;;;;;;;;9.40;8.20;;;;;30.81;37.48;99870.59;5093209;28;8868;-62
2022/08/25 09:23:53;;;;;;;;;10.40;7.80;;;;;30.93;37.65;99862.22;5092238;28;9522;-61
2022/08/25 09:26:21;;;;;;;;;7.40;7.40;;;;;31.17;37.45;99871.91;5093082;28;8958;-62
2022/08/25 09:28:49;;;;;;;;;7.00;7.00;;;;;31.44;37.29;99856.28;5094523;28;8890;-62
2022/08/25 09:31:17;;;;;;;;;8.00;7.60;;;;;31.60;36.92;99863.59;5093837;28;8870;-62
2022/08/25 09:33:45;;;;;;;;;10.80;8.80;;;;;31.66;36.74;99857.91;5093198;28;8962;-62
2022/08/25 09:36:13;;;;;;;;;7.40;7.40;;;;;31.72;36.42;99853.31;5093244;28;8873;-62
2022/08/25 09:38:41;;;;;;;;;6.40;6.20;;;;;31.82;36.83;99850.63;5091781;28;8840;-61
2022/08/25 09:41:10;;;;;;;;;8.40;8.40;;;;;31.90;36.80;99845.50;5091327;28;8966;-62
2022/08/25 09:43:38;;;;;;;;;11.00;8.40;;;;;31.88;36.68;99847.66;5093771;28;8936;-62
2022/08/25 09:46:06;;;;;;;;;10.00;9.80;;;;;31.96;36.64;99841.69;5094248;28;8973;-62
2022/08/25 09:48:36;;;;;;;;;9.00;9.00;;;;;32.09;36.61;99843.16;5094562;28;9008;-61
2022/08/25 09:51:07;;;;;;;;;8.80;8.00;;;;;32.34;35.75;99833.19;5093455;28;9556;-62
2022/08/25 09:53:36;;;;;;;;;10.80;10.00;;;;;32.75;35.47;99837.88;5091545;28;8868;-62
2022/08/25 09:56:07;;;;;;;;;8.60;7.80;;;;;33.32;34.84;99829.59;5091849;28;8839;-62
2022/08/25 09:58:35;;;;;;;;;7.20;7.20;;;;;33.96;34.02;99820.59;5091793;28;8827;-61
2022/08/25 10:01:03;;;;;;;;;7.20;7.20;;;;;34.57;33.36;99818.63;5093033;28;9221;-62
2022/08/25 10:03:31;;;;;;;;;7.40;7.00;;;;;35.12;32.41;99813.69;5094142;28;9010;-62
2022/08/25 10:06:03;;;;;;;;;7.60;7.00;;;;;35.64;32.03;99804.84;5095313;28;8854;-62
2022/08/25 10:08:31;;;;;;;;;11.00;9.40;;;;;36.11;31.36;99806.69;5095318;28;8851;-62
2022/08/25 10:10:59;;;;;;;;;9.80;9.20;;;;;36.55;31.13;99807.38;5095394;28;8856;-63
2022/08/25 10:13:27;;;;;;;;;9.40;9.40;;;;;37.01;30.18;99808.53;5095292;28;8832;-63
2022/08/25 10:15:55;;;;;;;;;8.00;8.00;;;;;37.35;29.72;99789.75;5096365;28;8852;-61
2022/08/25 10:18:24;;;;;;;;;8.60;8.40;;;;;37.74;29.83;99793.06;5094552;28;8832;-62
2022/08/25 10:20:53;;;;;;;;;3.20;2.60;;;;;38.13;29.52;99779.63;5094877;28;8840;-62
2022/08/25 10:23:21;;;;;;;;;9.20;8.00;;;;;38.45;28.58;99781.56;5092194;28;8851;-62
2022/08/25 10:25:51;;;;;;;;;7.40;6.80;;;;;38.76;28.16;99789.00;5092205;28;8831;-62
2022/08/25 10:28:26;;;;;;;;;6.40;6.40;;;;;39.16;28.36;99788.19;5092051;28;8843;-63
2022/08/25 10:30:55;;;;;;;;;7.40;7.40;;;;;39.44;27.94;99772.25;5090163;28;8844;-62
2022/08/25 10:33:22;;;;;;;;;6.40;6.20;;;;;39.65;27.92;99768.63;5091218;28;8840;-62
2022/08/25 10:35:50;;;;;;;;;9.80;8.80;;;;;39.94;27.62;99759.84;5090940;28;8937;-62
2022/08/25 10:38:18;;;;;;;;;7.40;6.40;;;;;40.20;27.13;99761.72;5091076;28;8926;-62
2022/08/25 10:40:48;;;;;;;;;5.00;5.00;;;;;40.31;27.41;99760.28;5092524;28;8839;-62
2022/08/25 10:43:16;;;;;;;;;7.60;7.40;;;;;40.43;26.83;99760.50;5093070;28;8844;-62
2022/08/25 10:45:45;;;;;;;;;8.00;7.00;;;;;40.33;26.99;99762.75;5091947;28;8890;-62
2022/08/25 10:48:12;;;;;;;;;9.60;8.00;;;;;40.42;27.55;99749.66;5090523;28;8843;-61
2022/08/25 10:50:40;;;;;;;;;6.20;6.00;;;;;40.62;27.17;99741.53;5090185;28;8850;-62
2022/08/25 10:53:12;;;;;;;;;8.20;8.20;;;;;40.89;26.25;99746.88;5088708;28;8843;-62
2022/08/25 10:55:43;;;;;;;;;6.00;6.00;;;;;41.11;25.80;99751.56;5088764;28;8986;-62
2022/08/25 10:58:11;;;;;;;;;7.00;7.00;;;;;41.25;25.73;99743.84;5089385;28;8832;-62
2022/08/25 11:00:41;;;;;;;;;6.80;6.40;;;;;41.42;25.55;99746.69;5087814;28;8956;-62
2022/08/25 11:03:14;;;;;;;;;8.40;7.20;;;;;41.74;25.37;99737.78;5087000;28;9037;-63
2022/08/25 11:05:44;;;;;;;;;7.00;6.80;;;;;42.06;24.85;99732.47;5088668;28;8836;-62
2022/08/25 11:08:12;;;;;;;;;5.00;4.00;;;;;42.29;25.32;99739.50;5090013;28;9199;-62
2022/08/25 11:10:40;;;;;;;;;6.20;5.80;;;;;42.47;24.62;99718.69;5089550;28;8860;-62
2022/08/25 11:13:08;;;;;;;;;6.40;6.40;;;;;42.69;24.35;99724.03;5088943;28;8982;-62
2022/08/25 11:15:37;;;;;;;;;7.00;7.00;;;;;42.97;24.63;99720.44;5089067;28;8851;-62
2022/08/25 11:18:16;;;;;;;;;5.80;5.80;;;;;43.33;23.35;99725.47;5089381;28;8832;-62
2022/08/25 11:20:45;;;;;;;;;5.40;5.40;;;;;43.34;23.97;99715.88;5089455;28;8848;-62
2022/08/25 11:23:15;;;;;;;;;8.20;7.60;;;;;43.64;23.56;99717.41;5090107;28;8843;-62
2022/08/25 11:25:43;;;;;;;;;5.00;4.60;;;;;43.92;22.99;99721.31;5091259;28;8850;-62
2022/08/25 11:28:11;;;;;;;;;5.60;5.60;;;;;43.98;23.29;99719.94;5092100;28;8852;-62
2022/08/25 11:30:39;;;;;;;;;7.80;7.80;;;;;44.06;22.99;99713.38;5092388;28;8853;-63
2022/08/25 11:33:07;;;;;;;;;6.00;6.00;;;;;44.14;23.28;99706.88;5091675;28;8864;-63
2022/08/25 11:35:35;;;;;;;;;6.00;5.60;;;;;44.31;22.79;99717.91;5091484;28;8828;-62
2022/08/25 11:38:04;;;;;;;;;7.00;5.80;;;;;44.46;22.68;99709.66;5092763;28;8970;-62
2022/08/25 11:40:32;;;;;;;;;6.00;6.00;;;;;44.64;22.50;99704.59;5092456;28;8970;-62
2022/08/25 11:43:00;;;;;;;;;6.00;5.00;;;;;44.64;22.36;99711.03;5093123;28;8855;-63
2022/08/25 11:45:29;;;;;;;;;6.00;6.00;;;;;44.78;22.68;99713.47;5094006;28;8874;-63
2022/08/25 11:47:56;;;;;;;;;4.40;4.40;;;;;44.79;22.40;99707.50;5093574;28;8995;-62